Wetterdaten: aktuell Montag, 25.09.2023 23:45
Datum Zeit Temp. A. Feuchte A. Luftdruck Regen Wind Richtung Richtung Sonnenschein UV Windben
25.09.2023 23:45 10,9 C 89 % 1023,1 hPa 0,0 l/m 0,0 km/h N 355 0 min 0,0 UV-I 0,0 km/h
25.09.2023 22:45 11,8 C 88 % 1023,2 hPa 0,0 l/m 0,0 km/h N 355 0 min 0,0 UV-I 0,0 km/h
25.09.2023 21:45 12,8 C 86 % 1023,4 hPa 0,0 l/m 0,0 km/h N 355 0 min 0,0 UV-I 0,0 km/h
25.09.2023 20:45 13,9 C 83 % 1023,3 hPa 0,0 l/m 0,0 km/h N 355 0 min 0,0 UV-I 0,0 km/h
25.09.2023 19:45 15,7 C 77 % 1022,9 hPa 0,0 l/m 0,0 km/h O-NO 76 0 min 0,0 UV-I 0,0 km/h
25.09.2023 18:45 18,2 C 67 % 1022,7 hPa 0,0 l/m 0,0 km/h O-NO 76 45 min 0,0 UV-I 0,0 km/h
25.09.2023 17:45 19,6 C 63 % 1022,9 hPa 0,0 l/m 1,6 km/h NO 40 60 min 0,0 UV-I 4,8 km/h
25.09.2023 16:45 20,1 C 61 % 1023,0 hPa 0,0 l/m 4,4 km/h NO 42 55 min 1,1 UV-I 11,3 km/h
25.09.2023 15:45 20,7 C 58 % 1023,1 hPa 0,0 l/m 2,1 km/h N-NO 20 60 min 2,3 UV-I 6,4 km/h
25.09.2023 14:45 20,3 C 59 % 1023,5 hPa 0,0 l/m 3,8 km/h O-NO 59 60 min 3,4 UV-I 9,7 km/h
25.09.2023 13:45 19,2 C 63 % 1023,5 hPa 0,0 l/m 4,8 km/h O 90 60 min 4,1 UV-I 14,5 km/h
25.09.2023 12:45 17,9 C 65 % 1023,6 hPa 0,0 l/m 8,7 km/h O-NO 69 60 min 4,2 UV-I 17,7 km/h
25.09.2023 11:45 16,8 C 68 % 1023,9 hPa 0,0 l/m 7,4 km/h O-SO 105 60 min 3,5 UV-I 16,1 km/h
25.09.2023 10:45 15,4 C 72 % 1024,2 hPa 0,0 l/m 8,8 km/h O-NO 74 60 min 2,4 UV-I 20,9 km/h
25.09.2023 09:45 14,1 C 77 % 1024,2 hPa 0,0 l/m 5,8 km/h O-NO 69 60 min 1,3 UV-I 12,9 km/h
25.09.2023 08:45 8,8 C 91 % 1024,6 hPa 0,0 l/m 0,0 km/h O-NO 60 60 min 0,0 UV-I 0,0 km/h
25.09.2023 07:45 6,5 C 90 % 1024,3 hPa 0,0 l/m 0,0 km/h N 0 25 min 0,0 UV-I 0,0 km/h
25.09.2023 06:45 6,4 C 90 % 1023,9 hPa 0,0 l/m 0,0 km/h N 0 0 min 0,0 UV-I 0,0 km/h
25.09.2023 05:45 6,6 C 89 % 1024,0 hPa 0,0 l/m 0,0 km/h N 0 0 min 0,0 UV-I 0,0 km/h
25.09.2023 04:45 6,8 C 89 % 1024,4 hPa 0,0 l/m 0,0 km/h N 0 0 min 0,0 UV-I 0,0 km/h
25.09.2023 03:45 6,9 C 89 % 1024,8 hPa 0,0 l/m 0,0 km/h N 0 0 min 0,0 UV-I 0,0 km/h
25.09.2023 02:45 7,1 C 88 % 1024,8 hPa 0,0 l/m 0,0 km/h N 0 0 min 0,0 UV-I 0,0 km/h
25.09.2023 01:45 7,2 C 88 % 1025,1 hPa 0,0 l/m 0,0 km/h N 0 0 min 0,0 UV-I 0,0 km/h
25.09.2023 00:45 8,1 C 87 % 1025,4 hPa 0,0 l/m 0,0 km/h N 0 0 min 0,0 UV-I 0,0 km/h
25.09.2023 00:00 8,2 C 87 % 1025,6 hPa 0,0 l/m 0,0 km/h N 0 0 min 0,0 UV-I 0,0 km/h
_ Min-Zeit 07:20 16:00 18:25 - 23:45 - - - - 23:45
Minimum _ 6,2 C 57 % 1022,6 hPa - 0,0 km/h - - - - 0,0 km/h
_ Max-Zeit 15:55 08:50 00:10 23:45 12:05 - - 18:30 13:30 11:05
Maximum _ 20,9 C 91 % 1025,6 hPa 0,0 l/m 11,3 km/h
O
- - 5 min 4,3 UV-I 24,1 km/h
O
Durchschnitt _ 12,9 C 78 % 1023,9 hPa #0,0 l/m 2,0 km/h O-NO - #11:05 h 2,7 UV-I 4,8 km/h